createdAt,value
2022-08-23T00:00:13.926Z,10.90
2022-08-23T00:03:02.617Z,9.40
2022-08-23T00:05:32.896Z,8.40
2022-08-23T00:08:01.147Z,8.20
2022-08-23T00:10:29.291Z,9.00
2022-08-23T00:12:57.230Z,9.70
2022-08-23T00:15:25.474Z,9.90
2022-08-23T00:17:53.346Z,10.50
2022-08-23T00:20:22.539Z,11.90
2022-08-23T00:22:50.818Z,13.80
2022-08-23T00:25:18.788Z,13.20
2022-08-23T00:27:46.886Z,14.70
2022-08-23T00:30:16.673Z,16.60
2022-08-23T00:32:45.741Z,19.20
2022-08-23T00:35:26.574Z,17.50
2022-08-23T00:38:32.054Z,22.70
2022-08-23T00:40:53.000Z,19.00
2022-08-23T00:43:48.596Z,20.70
2022-08-23T00:47:02.362Z,18.30
2022-08-23T00:49:32.348Z,23.40
2022-08-23T00:52:35.588Z,24.80
2022-08-23T00:55:04.647Z,25.10
2022-08-23T00:57:34.167Z,24.30
2022-08-23T01:00:02.022Z,27.20
2022-08-23T01:02:30.101Z,25.50
2022-08-23T01:05:00.449Z,24.50
2022-08-23T01:07:41.539Z,30.30
2022-08-23T01:10:19.920Z,25.20
2022-08-23T01:12:56.386Z,27.40
2022-08-23T01:15:33.105Z,26.60
2022-08-23T01:18:06.478Z,28.10
2022-08-23T01:20:44.022Z,24.90
2022-08-23T01:23:34.267Z,25.50
2022-08-23T01:26:03.086Z,23.60
2022-08-23T01:28:32.070Z,23.50
2022-08-23T01:31:01.206Z,24.30
2022-08-23T01:33:30.401Z,25.20
2022-08-23T01:35:59.173Z,25.80
2022-08-23T01:38:32.896Z,23.50
2022-08-23T01:41:01.583Z,26.70
2022-08-23T01:43:29.762Z,24.30
2022-08-23T01:45:57.627Z,23.80
2022-08-23T01:48:25.538Z,23.90
2022-08-23T01:50:53.330Z,24.80
2022-08-23T01:53:21.836Z,24.90
2022-08-23T01:55:51.890Z,23.80
2022-08-23T01:58:21.551Z,23.30
2022-08-23T02:00:49.516Z,23.40
2022-08-23T02:03:17.391Z,23.20
2022-08-23T02:05:45.871Z,23.40
2022-08-23T02:08:33.950Z,21.60
2022-08-23T02:11:12.743Z,21.80
2022-08-23T02:13:42.580Z,20.60
2022-08-23T02:16:14.937Z,20.60
2022-08-23T02:18:44.623Z,20.90
2022-08-23T02:21:13.062Z,18.80
2022-08-23T02:23:41.054Z,18.20
2022-08-23T02:26:09.131Z,17.80
2022-08-23T02:28:37.511Z,16.90
2022-08-23T02:31:06.959Z,17.40
2022-08-23T02:33:38.127Z,15.30
2022-08-23T02:36:06.423Z,14.80
2022-08-23T02:38:35.661Z,13.80
2022-08-23T02:41:03.991Z,12.40
2022-08-23T02:43:38.265Z,12.60
2022-08-23T02:46:09.083Z,12.10
2022-08-23T02:48:39.243Z,11.20
2022-08-23T02:51:10.093Z,10.80
2022-08-23T02:53:39.462Z,9.80
2022-08-23T02:56:13.082Z,9.00
2022-08-23T02:58:54.238Z,6.80
2022-08-23T03:01:30.606Z,5.80
2022-08-23T03:04:04.735Z,5.60
2022-08-23T03:06:33.138Z,6.00
2022-08-23T03:09:01.162Z,6.00
2022-08-23T03:11:29.683Z,5.20
2022-08-23T03:13:58.281Z,4.80
2022-08-23T03:16:28.727Z,5.20
2022-08-23T03:18:57.407Z,5.00
2022-08-23T03:21:25.181Z,3.90
2022-08-23T03:23:55.040Z,3.90
2022-08-23T03:28:56.713Z,4.60
2022-08-23T03:31:26.962Z,4.50
2022-08-23T03:34:06.637Z,4.50
2022-08-23T03:36:35.630Z,5.10
2022-08-23T03:39:06.037Z,5.00
2022-08-23T03:41:35.099Z,5.70
2022-08-23T03:44:04.977Z,6.30
2022-08-23T03:46:35.890Z,7.40
2022-08-23T03:49:08.433Z,7.60
2022-08-23T03:51:50.081Z,8.30
2022-08-23T03:54:19.188Z,8.00
2022-08-23T03:57:00.222Z,8.40
2022-08-23T03:59:35.067Z,8.40
2022-08-23T04:02:05.749Z,8.10
2022-08-23T04:04:34.602Z,7.80
2022-08-23T04:07:33.069Z,7.90
2022-08-23T04:10:01.773Z,7.90
2022-08-23T04:12:33.807Z,7.70
2022-08-23T04:15:03.506Z,7.90
2022-08-23T04:17:33.448Z,7.70
2022-08-23T04:20:03.918Z,7.60
2022-08-23T04:22:33.729Z,7.10
2022-08-23T04:25:05.316Z,7.10
2022-08-23T04:27:54.034Z,6.80
2022-08-23T04:30:24.059Z,6.40
2022-08-23T04:32:52.285Z,6.60
2022-08-23T04:35:20.689Z,7.20
2022-08-23T04:37:49.742Z,6.80
2022-08-23T04:40:36.580Z,7.60
2022-08-23T04:43:06.711Z,7.50
2022-08-23T04:45:38.886Z,8.40
2022-08-23T04:48:12.167Z,8.10
2022-08-23T04:50:41.728Z,8.50
2022-08-23T04:53:17.081Z,9.10
2022-08-23T04:55:56.358Z,10.60
2022-08-23T04:58:24.308Z,10.80
2022-08-23T05:00:53.568Z,10.00
2022-08-23T05:03:29.898Z,11.10
2022-08-23T05:05:59.138Z,10.80
2022-08-23T05:08:34.062Z,11.20
2022-08-23T05:11:05.598Z,12.10
2022-08-23T05:13:35.140Z,11.50
2022-08-23T05:16:06.339Z,11.80
2022-08-23T05:18:37.324Z,12.40
2022-08-23T05:21:06.461Z,11.50
2022-08-23T05:23:34.659Z,11.40
2022-08-23T05:26:07.470Z,11.50
2022-08-23T05:28:42.339Z,11.40
2022-08-23T05:31:14.886Z,11.40
2022-08-23T05:33:51.497Z,10.90
2022-08-23T05:36:25.848Z,10.70
2022-08-23T05:38:54.393Z,10.30
2022-08-23T05:41:33.373Z,10.20
2022-08-23T05:44:10.611Z,9.50
2022-08-23T05:46:42.368Z,10.20
2022-08-23T05:49:29.350Z,10.00
2022-08-23T05:51:57.657Z,9.20
2022-08-23T05:54:28.562Z,9.80
2022-08-23T05:57:15.562Z,8.80
2022-08-23T05:59:45.691Z,9.30
2022-08-23T06:02:13.557Z,9.60
2022-08-23T06:04:41.714Z,9.80
2022-08-23T06:07:11.330Z,10.30
2022-08-23T06:09:39.765Z,11.10
2022-08-23T06:12:11.364Z,10.50
2022-08-23T06:14:40.215Z,11.20
2022-08-23T06:17:08.784Z,9.90
2022-08-23T06:19:39.214Z,10.10
2022-08-23T06:22:26.057Z,11.80
2022-08-23T06:24:54.310Z,11.30
2022-08-23T06:27:35.679Z,10.30
2022-08-23T06:30:04.038Z,10.20
2022-08-23T06:32:32.306Z,10.80
2022-08-23T06:35:38.031Z,10.20
2022-08-23T06:38:13.200Z,9.60
2022-08-23T06:40:47.475Z,9.70
2022-08-23T06:43:29.588Z,9.30
2022-08-23T06:46:23.489Z,8.90
2022-08-23T06:48:53.729Z,8.70
2022-08-23T06:51:30.345Z,11.60
2022-08-23T06:54:22.564Z,8.30
2022-08-23T06:57:10.455Z,7.70
2022-08-23T06:59:57.354Z,5.60
2022-08-23T07:02:38.254Z,5.40
2022-08-23T07:05:25.419Z,4.70
2022-08-23T07:08:10.034Z,4.40
2022-08-23T07:10:38.341Z,4.00
2022-08-23T07:13:06.464Z,4.30
2022-08-23T07:15:35.571Z,4.80
2022-08-23T07:18:05.712Z,5.80
2022-08-23T07:20:41.549Z,5.00
2022-08-23T07:23:10.316Z,4.30
2022-08-23T07:25:43.208Z,6.30
2022-08-23T07:28:14.345Z,6.90
2022-08-23T07:30:45.580Z,6.20
2022-08-23T07:33:16.408Z,6.50
2022-08-23T07:36:52.750Z,4.90
2022-08-23T07:39:22.546Z,5.50
2022-08-23T07:41:52.898Z,4.80
2022-08-23T07:44:27.087Z,2.70
2022-08-23T07:46:56.378Z,3.80
2022-08-23T07:49:29.346Z,3.00
2022-08-23T07:51:59.072Z,2.80
2022-08-23T07:54:29.364Z,2.10
2022-08-23T07:57:10.739Z,2.40
2022-08-23T07:59:57.994Z,2.90
2022-08-23T08:02:45.414Z,4.00
2022-08-23T08:05:32.178Z,2.90
2022-08-23T08:08:02.025Z,2.60
2022-08-23T08:10:30.417Z,2.50
2022-08-23T08:12:58.840Z,2.30
2022-08-23T08:15:27.315Z,3.00
2022-08-23T08:28:31.790Z,2.70
2022-08-23T08:30:59.001Z,3.10
2022-08-23T08:33:27.539Z,3.00
2022-08-23T08:36:01.782Z,3.00
2022-08-23T08:38:30.637Z,4.30
2022-08-23T08:41:10.177Z,3.10
2022-08-23T08:44:02.056Z,3.00
2022-08-23T08:46:36.168Z,4.20
2022-08-23T08:49:07.162Z,3.40
2022-08-23T08:51:43.696Z,3.20
2022-08-23T08:54:18.985Z,3.30
2022-08-23T08:56:53.012Z,3.10
2022-08-23T08:59:58.923Z,3.00
2022-08-23T09:02:33.347Z,4.40
2022-08-23T09:05:11.787Z,3.10
2022-08-23T09:08:07.110Z,3.20
2022-08-23T09:10:53.618Z,4.50
2022-08-23T09:13:56.024Z,2.90
2022-08-23T09:16:50.063Z,6.60
2022-08-23T09:19:18.837Z,3.20
2022-08-23T09:21:48.794Z,3.00
2022-08-23T09:24:16.561Z,2.50
2022-08-23T09:27:04.745Z,2.90
2022-08-23T09:29:37.242Z,2.60
2022-08-23T09:32:25.319Z,2.30
2022-08-23T09:34:51.975Z,4.00
2022-08-23T09:37:24.200Z,4.00
2022-08-23T09:40:12.303Z,2.50
2022-08-23T09:42:40.717Z,2.90
2022-08-23T09:48:46.045Z,1.20
2022-08-23T09:51:22.703Z,2.10
2022-08-23T09:54:06.018Z,1.50
2022-08-23T09:56:41.396Z,1.20
2022-08-23T09:59:27.722Z,0.80
2022-08-23T10:02:02.290Z,1.90
2022-08-23T10:04:42.073Z,0.60
2022-08-23T10:07:33.352Z,2.70
2022-08-23T10:10:21.073Z,1.90
2022-08-23T10:12:50.041Z,3.20
2022-08-23T10:15:25.619Z,5.50
2022-08-23T10:20:47.003Z,2.50
2022-08-23T10:23:20.958Z,1.90
2022-08-23T10:26:00.601Z,2.30
2022-08-23T10:29:09.954Z,1.40
2022-08-23T10:32:18.212Z,2.20
2022-08-23T10:34:58.657Z,0.60
2022-08-23T10:37:56.022Z,0.40
2022-08-23T10:40:30.600Z,0.80
2022-08-23T10:43:26.384Z,2.80
2022-08-23T10:46:00.831Z,0.90
2022-08-23T10:48:49.065Z,0.60
2022-08-23T10:51:31.812Z,0.40
2022-08-23T10:54:08.153Z,0.40
2022-08-23T10:56:44.334Z,0.80
2022-08-23T10:59:21.446Z,0.30
2022-08-23T11:02:00.123Z,1.00
2022-08-23T11:05:01.169Z,3.40
2022-08-23T11:07:43.570Z,4.20
2022-08-23T11:10:36.248Z,3.30
2022-08-23T11:13:06.961Z,0.80
2022-08-23T11:16:01.036Z,2.40
2022-08-23T11:18:48.807Z,3.90
2022-08-23T11:23:54.815Z,2.60
2022-08-23T11:26:23.471Z,1.30
2022-08-23T11:29:22.212Z,4.20
2022-08-23T11:32:29.358Z,1.60
2022-08-23T11:35:12.737Z,0.60
2022-08-23T11:37:50.600Z,0.70
2022-08-23T12:02:47.552Z,3.40
2022-08-23T12:05:22.078Z,1.40
2022-08-23T12:08:17.003Z,1.30
2022-08-23T12:10:45.921Z,4.20
2022-08-23T12:13:22.596Z,11.60
2022-08-23T12:16:17.100Z,4.50
2022-08-23T12:18:54.259Z,4.60
2022-08-23T12:21:38.585Z,3.20
2022-08-23T12:24:33.164Z,6.40
2022-08-23T12:27:08.029Z,6.40
2022-08-23T12:29:54.962Z,12.10
2022-08-23T12:32:49.705Z,9.30
2022-08-23T12:35:25.472Z,10.50
2022-08-23T12:38:14.985Z,7.20
2022-08-23T12:40:44.965Z,10.70
2022-08-23T12:43:22.541Z,9.40
2022-08-23T12:46:01.796Z,7.80
2022-08-23T12:48:45.416Z,5.70
2022-08-23T12:51:13.106Z,7.60
2022-08-23T12:53:45.174Z,9.80
2022-08-23T12:56:22.232Z,9.40
2022-08-23T12:59:07.069Z,10.90
2022-08-23T13:01:36.859Z,9.70
2022-08-23T13:04:08.889Z,8.80
2022-08-23T13:14:44.206Z,9.90
2022-08-23T13:17:26.041Z,11.80
2022-08-23T13:20:01.993Z,8.30
2022-08-23T13:22:37.770Z,8.50
2022-08-23T13:25:35.670Z,9.00
2022-08-23T13:28:22.476Z,10.00
2022-08-23T13:31:03.440Z,11.10
2022-08-23T13:33:31.075Z,9.50
2022-08-23T13:36:22.751Z,10.80
2022-08-23T13:38:49.766Z,8.80
2022-08-23T13:41:38.827Z,10.50
2022-08-23T13:44:08.231Z,12.10
2022-08-23T13:46:44.244Z,8.50
2022-08-23T13:49:19.348Z,9.30
2022-08-23T13:52:11.936Z,11.90
2022-08-23T13:54:51.292Z,11.30
2022-08-23T13:57:21.714Z,11.90
2022-08-23T13:59:59.386Z,11.90
2022-08-23T14:02:30.571Z,10.40
2022-08-23T14:04:58.189Z,11.90
2022-08-23T14:07:24.775Z,10.50
2022-08-23T14:09:54.928Z,10.00
2022-08-23T14:12:27.540Z,10.10
2022-08-23T14:14:58.742Z,9.20
2022-08-23T14:17:25.996Z,9.60
2022-08-23T14:20:43.795Z,10.60
2022-08-23T14:23:11.627Z,9.00
2022-08-23T14:25:39.380Z,10.50
2022-08-23T14:28:05.986Z,10.60
2022-08-23T14:30:36.129Z,9.30
2022-08-23T14:33:03.992Z,9.90
2022-08-23T14:35:31.537Z,12.60
2022-08-23T14:38:03.341Z,8.40
2022-08-23T14:40:31.108Z,9.70
2022-08-23T14:42:58.112Z,9.70
2022-08-23T14:45:25.618Z,10.40
2022-08-23T14:47:52.589Z,8.40
2022-08-23T14:50:21.640Z,10.90
2022-08-23T14:52:48.178Z,7.90
2022-08-23T14:55:21.046Z,9.20
2022-08-23T14:57:51.189Z,10.40
2022-08-23T15:00:20.569Z,10.00
2022-08-23T15:02:49.689Z,11.70
2022-08-23T15:05:17.005Z,10.50
2022-08-23T15:07:44.881Z,10.60
2022-08-23T15:10:49.764Z,9.50
2022-08-23T15:13:20.368Z,8.40
2022-08-23T15:15:49.893Z,12.70
2022-08-23T15:18:17.657Z,9.70
2022-08-23T15:20:45.447Z,9.10
2022-08-23T15:23:13.001Z,10.00
2022-08-23T15:25:41.772Z,9.50
2022-08-23T15:28:13.216Z,9.00
2022-08-23T15:30:42.128Z,8.60
2022-08-23T15:33:10.618Z,9.20
2022-08-23T15:35:45.789Z,12.20
2022-08-23T15:38:14.387Z,8.40
2022-08-23T15:40:43.723Z,9.40
2022-08-23T15:43:12.069Z,9.10
2022-08-23T15:45:39.030Z,9.80
2022-08-23T15:48:30.505Z,9.80
2022-08-23T15:50:58.646Z,10.30
2022-08-23T15:53:27.359Z,9.80
2022-08-23T15:55:54.430Z,8.80
2022-08-23T15:58:24.824Z,8.80
2022-08-23T16:00:53.881Z,9.30
2022-08-23T16:03:22.561Z,9.50
2022-08-23T16:05:53.093Z,11.90
2022-08-23T16:08:27.099Z,9.20
2022-08-23T16:10:55.358Z,9.20
2022-08-23T16:13:27.263Z,13.40
2022-08-23T16:15:54.425Z,9.90
2022-08-23T16:18:22.725Z,9.00
2022-08-23T16:20:54.585Z,10.10
2022-08-23T16:23:25.877Z,7.80
2022-08-23T16:25:52.867Z,8.70
2022-08-23T16:28:19.833Z,8.20
2022-08-23T16:30:47.455Z,6.40
2022-08-23T16:33:14.047Z,11.30
2022-08-23T16:35:40.947Z,7.90
2022-08-23T16:38:08.825Z,11.40
2022-08-23T16:40:35.881Z,8.10
2022-08-23T16:43:02.996Z,10.10
2022-08-23T16:45:29.616Z,9.60
2022-08-23T16:47:56.341Z,9.70
2022-08-23T16:50:23.455Z,12.00
2022-08-23T16:52:50.865Z,6.30
2022-08-23T16:55:18.640Z,8.70
2022-08-23T16:57:46.402Z,5.40
2022-08-23T17:00:14.917Z,5.70
2022-08-23T17:02:43.341Z,9.40
2022-08-23T17:05:14.793Z,11.80
2022-08-23T17:07:42.666Z,12.30
2022-08-23T17:10:12.947Z,11.60
2022-08-23T17:12:57.319Z,9.50
2022-08-23T17:17:54.967Z,8.60
2022-08-23T17:20:24.693Z,7.70
2022-08-23T17:22:53.979Z,6.40
2022-08-23T17:25:24.122Z,5.60
2022-08-23T17:27:53.909Z,4.40
2022-08-23T17:30:24.420Z,4.30
2022-08-23T17:32:52.994Z,3.80
2022-08-23T17:35:23.900Z,6.60
2022-08-23T17:38:01.689Z,5.10
2022-08-23T17:40:43.229Z,10.10
2022-08-23T17:43:11.939Z,9.30
2022-08-23T17:45:45.886Z,6.00
2022-08-23T17:48:16.147Z,6.00
2022-08-23T17:50:47.921Z,6.20
2022-08-23T17:53:17.919Z,5.10
2022-08-23T17:55:44.514Z,4.00
2022-08-23T17:58:13.676Z,5.20
2022-08-23T18:00:40.537Z,8.00
2022-08-23T18:03:07.223Z,11.80
2022-08-23T18:05:37.169Z,9.20
2022-08-23T18:08:07.959Z,11.20
2022-08-23T18:10:35.529Z,9.70
2022-08-23T18:13:02.702Z,10.80
2022-08-23T18:15:37.153Z,11.50
2022-08-23T18:18:03.681Z,9.70
2022-08-23T18:20:31.051Z,10.30
2022-08-23T18:23:55.906Z,11.60
2022-08-23T18:26:43.750Z,10.70
2022-08-23T18:29:17.021Z,6.30
2022-08-23T18:31:45.439Z,7.40
2022-08-23T18:34:20.377Z,10.90
2022-08-23T18:36:48.932Z,9.20
2022-08-23T18:39:16.929Z,7.80
2022-08-23T18:42:05.729Z,7.60
2022-08-23T18:44:34.035Z,7.30
2022-08-23T18:47:03.732Z,7.20
2022-08-23T18:49:34.142Z,6.40
2022-08-23T18:52:06.928Z,6.80
2022-08-23T18:54:34.766Z,7.80
2022-08-23T18:57:03.698Z,8.40
2022-08-23T18:59:32.393Z,8.80
2022-08-23T19:02:00.497Z,8.30
2022-08-23T19:04:30.324Z,6.80
2022-08-23T19:06:58.628Z,8.90
2022-08-23T19:09:28.096Z,8.00
2022-08-23T19:11:56.800Z,11.00
2022-08-23T19:14:24.821Z,10.00
2022-08-23T19:16:52.766Z,8.60
2022-08-23T19:19:23.207Z,9.40
2022-08-23T19:21:51.096Z,11.10
2022-08-23T19:24:19.328Z,10.80
2022-08-23T19:26:48.798Z,8.90
2022-08-23T19:29:18.729Z,10.30
2022-08-23T19:31:48.871Z,8.60
2022-08-23T19:34:18.772Z,14.10
2022-08-23T19:36:51.266Z,9.00
2022-08-23T19:39:27.787Z,11.70
2022-08-23T19:41:58.795Z,11.90
2022-08-23T19:44:28.310Z,10.50
2022-08-23T19:46:56.976Z,11.40
2022-08-23T19:49:25.273Z,14.40
2022-08-23T19:51:53.479Z,13.00
2022-08-23T19:54:23.137Z,15.40
2022-08-23T19:56:57.635Z,12.60
2022-08-23T19:59:33.085Z,17.30
2022-08-23T20:02:02.861Z,14.30
2022-08-23T20:04:33.039Z,16.90
2022-08-23T20:07:02.857Z,14.10
2022-08-23T20:09:32.132Z,15.20
2022-08-23T20:12:01.118Z,14.20
2022-08-23T20:14:33.946Z,14.30
2022-08-23T20:17:04.528Z,16.50
2022-08-23T20:19:32.891Z,16.90
2022-08-23T20:22:20.581Z,15.00
2022-08-23T20:24:52.621Z,17.80
2022-08-23T20:27:24.525Z,15.90
2022-08-23T20:30:06.588Z,15.90
2022-08-23T20:32:36.224Z,15.30
2022-08-23T20:35:14.839Z,15.20
2022-08-23T20:37:53.395Z,14.00
2022-08-23T20:40:21.971Z,17.60
2022-08-23T20:42:51.635Z,14.60
2022-08-23T20:45:20.823Z,14.40
2022-08-23T20:47:49.087Z,14.20
2022-08-23T20:50:18.512Z,15.80
2022-08-23T20:52:48.313Z,13.50
2022-08-23T20:55:17.396Z,13.80
2022-08-23T20:57:54.111Z,13.30
2022-08-23T21:00:22.852Z,14.40
2022-08-23T21:02:52.301Z,13.30
2022-08-23T21:05:21.739Z,15.00
2022-08-23T21:07:53.051Z,12.50
2022-08-23T21:10:21.674Z,13.60
2022-08-23T21:12:51.145Z,14.60
2022-08-23T21:15:22.945Z,13.30
2022-08-23T21:17:51.948Z,14.20
2022-08-23T21:20:20.223Z,17.50
2022-08-23T21:22:48.661Z,12.70
2022-08-23T21:25:17.514Z,14.00
2022-08-23T21:27:45.688Z,14.30
2022-08-23T21:30:15.624Z,15.10
2022-08-23T21:32:45.869Z,15.20
2022-08-23T21:35:14.588Z,14.60
2022-08-23T21:37:43.273Z,15.40
2022-08-23T21:40:13.215Z,14.80
2022-08-23T21:42:42.233Z,12.30
2022-08-23T21:45:10.301Z,12.70
2022-08-23T21:47:38.688Z,13.40
2022-08-23T21:50:07.241Z,14.50
2022-08-23T21:52:35.595Z,12.60
2022-08-23T21:55:04.876Z,10.10
2022-08-23T21:57:33.997Z,11.80
2022-08-23T22:00:19.049Z,8.80
2022-08-23T22:02:47.886Z,9.80
2022-08-23T22:05:17.271Z,8.70
2022-08-23T22:07:46.257Z,9.90
2022-08-23T22:10:14.682Z,8.10
2022-08-23T22:12:43.581Z,7.40
2022-08-23T22:15:11.658Z,7.80
2022-08-23T22:17:40.005Z,7.80
2022-08-23T22:20:13.627Z,6.50
2022-08-23T22:22:42.892Z,7.90
2022-08-23T22:25:12.718Z,6.30
2022-08-23T22:27:40.976Z,8.60
2022-08-23T22:30:09.566Z,8.50
2022-08-23T22:32:38.615Z,6.40
2022-08-23T22:35:08.981Z,7.00
2022-08-23T22:37:49.384Z,7.50
2022-08-23T22:40:27.601Z,7.00
2022-08-23T22:42:56.445Z,8.00
2022-08-23T22:45:24.866Z,7.60
2022-08-23T22:47:54.328Z,7.00
2022-08-23T22:50:24.174Z,6.70
2022-08-23T22:52:52.482Z,7.70
2022-08-23T22:55:22.067Z,6.60
2022-08-23T22:57:50.855Z,7.40
2022-08-23T23:00:19.932Z,6.90
2022-08-23T23:02:48.012Z,7.10
2022-08-23T23:05:15.935Z,7.80
2022-08-23T23:08:02.923Z,6.90
2022-08-23T23:10:31.731Z,7.20
2022-08-23T23:12:59.962Z,8.50
2022-08-23T23:15:28.016Z,6.60
2022-08-23T23:17:59.417Z,6.60
2022-08-23T23:20:42.996Z,7.40
2022-08-23T23:23:18.201Z,6.50
2022-08-23T23:25:48.046Z,6.50
2022-08-23T23:28:18.102Z,7.80
2022-08-23T23:30:48.664Z,9.60
2022-08-23T23:33:22.495Z,8.70
2022-08-23T23:35:55.234Z,12.40
2022-08-23T23:38:23.409Z,12.30
2022-08-23T23:40:52.264Z,12.10
2022-08-23T23:43:20.545Z,12.30
2022-08-23T23:45:49.532Z,13.70
2022-08-23T23:48:20.446Z,18.80
2022-08-23T23:50:50.060Z,16.40
2022-08-23T23:53:20.698Z,15.30
2022-08-23T23:55:51.263Z,18.30
2022-08-23T23:58:22.036Z,25.30
